Time;durP1;ratioP1;P1;durP2;ratioP2;P2;SDS_P1;SDS_P2;PMS_P1;PMS_P2;Temp;Humidity;BMP_temperature;BMP_pressure;BME280_temperature;BME280_humidity;BME280_pressure;Samples;Min_cycle;Max_cycle;Signal;HPM_P1;HPM_P2
2021/01/28 00:01:41;;;;;;;6.10;5.60;;;6.70;49.70;;;;;;4993848;28;20230;-67
2021/01/28 00:04:06;;;;;;;6.83;6.23;;;6.60;48.20;;;;;;4992656;28;20237;-66
2021/01/28 00:06:32;;;;;;;5.17;4.67;;;6.50;48.70;;;;;;4993284;28;20235;-67
2021/01/28 00:08:57;;;;;;;6.77;6.27;;;6.70;49.10;;;;;;4994349;28;20775;-67
2021/01/28 00:11:23;;;;;;;5.90;5.50;;;6.60;49.60;;;;;;4991870;28;20233;-67
2021/01/28 00:13:49;;;;;;;5.60;5.20;;;6.70;50.20;;;;;;4993440;28;20755;-66
2021/01/28 00:16:14;;;;;;;5.10;4.67;;;6.70;50.20;;;;;;4993564;28;20242;-67
2021/01/28 00:18:40;;;;;;;4.60;4.30;;;6.70;49.90;;;;;;4993640;28;20319;-67
2021/01/28 00:21:05;;;;;;;4.73;4.43;;;6.70;49.70;;;;;;4992201;28;20951;-65
2021/01/28 00:23:31;;;;;;;5.13;4.83;;;6.70;49.00;;;;;;4993338;28;20236;-65
2021/01/28 00:25:56;;;;;;;5.67;5.17;;;6.50;48.80;;;;;;4995741;28;20226;-65
2021/01/28 00:28:22;;;;;;;5.23;4.73;;;6.30;49.70;;;;;;4996061;28;20227;-65
2021/01/28 00:30:51;;;;;;;4.63;4.23;;;6.20;49.90;;;;;;4995955;28;20236;-65
2021/01/28 00:33:23;;;;;;;5.97;5.47;;;6.40;50.80;;;;;;4996966;28;21299;-66
2021/01/28 00:35:51;;;;;;;5.10;4.70;;;6.60;50.90;;;;;;4995974;28;20554;-66
2021/01/28 00:38:22;;;;;;;5.73;5.20;;;6.60;50.30;;;;;;4995766;28;20442;-66
2021/01/28 00:40:48;;;;;;;5.50;5.00;;;6.70;49.60;;;;;;4997199;28;20492;-66
2021/01/28 00:43:15;;;;;;;5.37;4.97;;;6.70;49.30;;;;;;4995906;28;20483;-66
2021/01/28 00:45:40;;;;;;;5.53;5.03;;;6.70;49.70;;;;;;4995820;28;20960;-66
2021/01/28 00:48:07;;;;;;;4.47;4.17;;;6.70;48.70;;;;;;4996315;28;20504;-66
2021/01/28 00:50:34;;;;;;;5.20;4.80;;;6.80;49.30;;;;;;4996633;28;20227;-66
2021/01/28 00:53:00;;;;;;;4.93;4.43;;;6.80;49.60;;;;;;4995516;28;20915;-66
2021/01/28 00:55:25;;;;;;;4.67;4.37;;;6.70;49.50;;;;;;4996347;28;20482;-66
2021/01/28 00:57:51;;;;;;;4.40;4.10;;;6.80;48.90;;;;;;4996654;28;20224;-66
2021/01/28 01:00:25;;;;;;;4.93;4.53;;;6.80;49.40;;;;;;4994899;28;20879;-66
2021/01/28 01:02:51;;;;;;;4.70;4.30;;;6.90;49.50;;;;;;4996215;28;20221;-66
2021/01/28 01:05:19;;;;;;;4.53;4.13;;;6.90;48.70;;;;;;4996651;28;20483;-66
2021/01/28 01:07:45;;;;;;;3.80;3.60;;;6.90;48.70;;;;;;4994318;28;20667;-66
2021/01/28 01:10:23;;;;;;;4.10;3.80;;;6.90;48.90;;;;;;4996207;28;20661;-67
2021/01/28 01:12:48;;;;;;;4.40;4.10;;;6.90;49.20;;;;;;4996796;28;20466;-67
2021/01/28 01:15:14;;;;;;;3.60;3.40;;;6.80;49.70;;;;;;4994571;28;21205;-66
2021/01/28 01:17:41;;;;;;;3.50;3.30;;;6.80;49.00;;;;;;4995862;28;20335;-67
2021/01/28 01:20:08;;;;;;;4.03;3.67;;;6.80;48.20;;;;;;4996515;28;20578;-66
2021/01/28 01:22:33;;;;;;;4.10;3.80;;;6.70;48.00;;;;;;4995337;28;20460;-67
2021/01/28 01:24:59;;;;;;;3.77;3.57;;;6.50;49.50;;;;;;4994853;28;20465;-67
2021/01/28 01:27:24;;;;;;;3.40;3.20;;;6.50;50.20;;;;;;4995304;28;20766;-66
2021/01/28 01:29:50;;;;;;;3.50;3.30;;;6.50;48.80;;;;;;4996430;28;21088;-66
2021/01/28 01:32:15;;;;;;;3.80;3.50;;;6.60;48.40;;;;;;4994516;28;20726;-66
2021/01/28 01:34:41;;;;;;;4.20;3.80;;;6.30;48.90;;;;;;4993492;28;20228;-67
2021/01/28 01:37:06;;;;;;;3.80;3.50;;;6.50;48.80;;;;;;4995074;28;20327;-66
2021/01/28 01:39:32;;;;;;;4.50;4.20;;;6.50;48.80;;;;;;4995223;28;20559;-66
2021/01/28 01:41:57;;;;;;;3.87;3.57;;;6.50;49.40;;;;;;4994417;28;20342;-66
2021/01/28 01:44:23;;;;;;;3.60;3.40;;;6.40;49.40;;;;;;4995424;28;20257;-66
2021/01/28 01:46:54;;;;;;;3.47;3.27;;;6.60;49.60;;;;;;4996355;28;20368;-67
2021/01/28 01:49:23;;;;;;;3.70;3.50;;;6.70;49.70;;;;;;4994162;28;20237;-67
2021/01/28 01:51:49;;;;;;;4.40;4.10;;;6.80;49.40;;;;;;4995493;28;20524;-66
2021/01/28 01:54:21;;;;;;;3.83;3.50;;;6.80;49.40;;;;;;4996130;28;20446;-66
2021/01/28 01:56:55;;;;;;;3.43;3.13;;;6.80;49.10;;;;;;4993962;28;21087;-66
2021/01/28 01:59:26;;;;;;;3.30;3.10;;;6.80;49.30;;;;;;4995360;28;20580;-66
2021/01/28 02:02:07;;;;;;;3.73;3.50;;;6.90;49.50;;;;;;4994984;28;20465;-67
2021/01/28 02:04:33;;;;;;;3.33;3.13;;;6.80;48.80;;;;;;4994126;28;20819;-66
2021/01/28 02:07:06;;;;;;;3.17;2.97;;;6.90;48.30;;;;;;4995967;28;21432;-67
2021/01/28 02:09:31;;;;;;;4.00;3.80;;;6.90;48.20;;;;;;4993766;28;20458;-67
2021/01/28 02:11:57;;;;;;;3.77;3.53;;;6.90;48.00;;;;;;4994777;28;20489;-66
2021/01/28 02:14:25;;;;;;;3.00;2.80;;;6.70;48.30;;;;;;4995862;28;20722;-66
2021/01/28 02:16:58;;;;;;;3.60;3.40;;;6.60;48.00;;;;;;4993258;28;20622;-66
2021/01/28 02:19:40;;;;;;;3.43;3.23;;;6.50;48.60;;;;;;4994675;28;20460;-67
2021/01/28 02:22:06;;;;;;;3.20;3.00;;;6.50;49.50;;;;;;4993329;28;20466;-66
2021/01/28 02:24:44;;;;;;;3.20;3.00;;;6.30;49.50;;;;;;4994586;28;20481;-66
2021/01/28 02:27:10;;;;;;;3.40;3.20;;;6.30;49.30;;;;;;4995295;28;21002;-66
2021/01/28 02:29:36;;;;;;;3.43;3.20;;;6.40;49.40;;;;;;4993227;28;20461;-66
2021/01/28 02:32:02;;;;;;;3.20;3.00;;;6.30;49.30;;;;;;4994735;28;21004;-66
2021/01/28 02:34:29;;;;;;;3.37;3.17;;;6.30;50.50;;;;;;4994839;28;20440;-66
2021/01/28 02:36:55;;;;;;;3.00;2.80;;;6.30;49.70;;;;;;4993892;28;20478;-66
2021/01/28 02:39:26;;;;;;;3.10;2.90;;;6.30;50.10;;;;;;4993554;28;21396;-66
2021/01/28 02:42:18;;;;;;;3.13;2.93;;;6.30;49.80;;;;;;4994687;28;20237;-67
2021/01/28 02:44:44;;;;;;;3.37;3.17;;;6.40;50.10;;;;;;4986959;28;20469;-66
2021/01/28 02:47:10;;;;;;;3.00;2.80;;;6.50;49.50;;;;;;4994256;28;20499;-65
2021/01/28 02:49:36;;;;;;;2.83;2.73;;;6.60;49.60;;;;;;4994146;28;20315;-65
2021/01/28 02:52:02;;;;;;;2.43;2.33;;;6.50;49.40;;;;;;4993421;28;21031;-65
2021/01/28 02:54:28;;;;;;;2.53;2.43;;;6.50;49.50;;;;;;4994464;28;20230;-66
2021/01/28 02:56:53;;;;;;;2.20;2.10;;;6.60;49.60;;;;;;4994827;28;20455;-66
2021/01/28 02:59:19;;;;;;;2.53;2.43;;;6.70;49.10;;;;;;4992649;28;20229;-66
2021/01/28 03:01:44;;;;;;;2.60;2.50;;;6.70;49.30;;;;;;4994128;28;20227;-65
2021/01/28 03:04:11;;;;;;;2.53;2.43;;;6.70;48.60;;;;;;4994166;28;20317;-65
2021/01/28 03:06:37;;;;;;;3.20;3.00;;;6.60;49.30;;;;;;4994259;28;20264;-66
2021/01/28 03:09:06;;;;;;;2.37;2.27;;;6.60;49.60;;;;;;4992877;28;20530;-66
2021/01/28 03:11:32;;;;;;;2.90;2.80;;;6.60;49.60;;;;;;4993981;28;20233;-66
2021/01/28 03:13:58;;;;;;;2.43;2.33;;;6.50;49.90;;;;;;4995051;28;20476;-65
2021/01/28 03:16:24;;;;;;;2.47;2.37;;;6.60;49.60;;;;;;4992587;28;20226;-66
2021/01/28 03:18:49;;;;;;;3.13;2.93;;;6.60;49.70;;;;;;4993512;28;20472;-66
2021/01/28 03:21:14;;;;;;;3.00;2.90;;;6.70;49.70;;;;;;4994631;28;20236;-65
2021/01/28 03:23:40;;;;;;;3.40;3.20;;;6.70;49.70;;;;;;4993611;28;20231;-66
2021/01/28 03:26:06;;;;;;;2.50;2.40;;;6.60;49.60;;;;;;4992626;28;20311;-66
2021/01/28 03:28:32;;;;;;;2.37;2.27;;;6.70;49.90;;;;;;4993687;28;20228;-66
2021/01/28 03:30:57;;;;;;;2.43;2.33;;;6.70;49.70;;;;;;4994715;28;20454;-66
2021/01/28 03:33:23;;;;;;;3.37;3.17;;;6.80;49.70;;;;;;4992314;28;20234;-65
2021/01/28 03:35:50;;;;;;;2.97;2.80;;;6.70;49.70;;;;;;4993609;28;20219;-66
2021/01/28 03:38:18;;;;;;;3.13;3.03;;;6.70;49.70;;;;;;4994180;28;20231;-65
2021/01/28 03:40:43;;;;;;;3.10;3.00;;;6.80;49.70;;;;;;4992781;28;20470;-66
2021/01/28 03:43:09;;;;;;;3.00;2.70;;;6.60;50.20;;;;;;4992836;28;20449;-66
2021/01/28 03:45:35;;;;;;;2.77;2.67;;;6.70;49.70;;;;;;4993771;28;20236;-66
2021/01/28 03:48:01;;;;;;;3.17;3.07;;;6.70;49.70;;;;;;4993828;28;20677;-66
2021/01/28 03:50:33;;;;;;;3.17;3.03;;;6.80;49.70;;;;;;4992634;28;20239;-66
2021/01/28 03:52:59;;;;;;;3.43;3.03;;;6.90;49.90;;;;;;4993679;28;20540;-65
2021/01/28 03:55:25;;;;;;;4.00;3.00;;;6.80;50.30;;;;;;4994407;28;20974;-66
2021/01/28 03:57:52;;;;;;;3.07;2.80;;;6.90;50.20;;;;;;4991791;28;20535;-66
2021/01/28 04:00:22;;;;;;;2.47;2.37;;;6.70;51.30;;;;;;4994380;28;20229;-66
2021/01/28 04:02:48;;;;;;;2.80;2.70;;;6.60;52.00;;;;;;4998242;28;20456;-65
2021/01/28 04:05:15;;;;;;;2.90;2.70;;;6.70;52.80;;;;;;4995931;28;20460;-65
2021/01/28 04:07:40;;;;;;;3.70;3.50;;;6.70;53.50;;;;;;4997121;28;20719;-65
2021/01/28 04:10:12;;;;;;;2.80;2.70;;;6.80;53.30;;;;;;4997404;28;20462;-64
2021/01/28 04:12:37;;;;;;;3.40;3.17;;;6.80;53.40;;;;;;4996680;28;20834;-65
2021/01/28 04:15:07;;;;;;;3.83;3.63;;;6.60;54.30;;;;;;4996722;28;20454;-65
2021/01/28 04:17:33;;;;;;;3.23;3.10;;;6.70;54.50;;;;;;4997011;28;20241;-64
2021/01/28 04:19:58;;;;;;;3.77;3.57;;;6.50;54.30;;;;;;4997208;28;20448;-65
2021/01/28 04:22:24;;;;;;;4.10;3.90;;;6.50;54.70;;;;;;4996228;28;20229;-65
2021/01/28 04:24:49;;;;;;;3.57;3.37;;;6.50;55.70;;;;;;4996608;28;20320;-65
2021/01/28 04:27:15;;;;;;;3.80;3.60;;;6.60;54.50;;;;;;4997528;28;20601;-65
2021/01/28 04:29:41;;;;;;;4.40;4.10;;;6.80;53.60;;;;;;4995468;28;20227;-65
2021/01/28 04:32:06;;;;;;;4.33;4.13;;;6.50;53.70;;;;;;4996831;28;20231;-66
2021/01/28 04:34:32;;;;;;;5.20;4.80;;;6.40;54.20;;;;;;4997148;28;20782;-65
2021/01/28 04:36:57;;;;;;;5.30;4.90;;;6.50;54.40;;;;;;4996908;28;20229;-65
2021/01/28 04:39:23;;;;;;;5.43;5.03;;;6.60;52.70;;;;;;4995578;28;20223;-66
2021/01/28 04:41:49;;;;;;;5.20;4.80;;;6.70;52.50;;;;;;4997036;28;20224;-65
2021/01/28 04:44:14;;;;;;;6.40;5.90;;;6.50;53.00;;;;;;4997451;28;20240;-66
2021/01/28 04:46:43;;;;;;;5.47;5.07;;;6.40;53.60;;;;;;4995857;28;20672;-66
2021/01/28 04:49:16;;;;;;;5.30;4.93;;;6.40;53.10;;;;;;4995684;28;20327;-65
2021/01/28 04:51:44;;;;;;;8.03;5.37;;;6.40;53.00;;;;;;4997478;28;20463;-66
2021/01/28 04:54:19;;;;;;;6.43;5.83;;;6.30;53.80;;;;;;4994835;28;20448;-65
2021/01/28 04:56:44;;;;;;;5.47;5.07;;;6.40;53.60;;;;;;4996701;28;20540;-65
2021/01/28 04:59:28;;;;;;;5.47;5.07;;;6.40;52.80;;;;;;4997146;28;20466;-65
2021/01/28 05:01:54;;;;;;;5.70;5.30;;;6.40;53.30;;;;;;4995397;28;21047;-66
2021/01/28 05:04:20;;;;;;;6.40;5.90;;;6.40;53.40;;;;;;4996553;28;20471;-66
2021/01/28 05:06:51;;;;;;;5.60;5.23;;;6.50;53.20;;;;;;4996216;28;20232;-66
2021/01/28 05:09:18;;;;;;;5.77;5.37;;;6.50;52.00;;;;;;4995038;28;20510;-65
2021/01/28 05:11:55;;;;;;;6.50;6.00;;;6.50;51.90;;;;;;4996422;28;20441;-66
2021/01/28 05:14:29;;;;;;;5.43;5.03;;;6.40;52.60;;;;;;4996890;28;20946;-66
2021/01/28 05:16:57;;;;;;;6.27;5.83;;;6.40;52.60;;;;;;5015557;28;20486;-66
2021/01/28 05:19:48;;;;;;;5.40;5.00;;;6.50;52.40;;;;;;5015947;28;20510;-65
2021/01/28 05:22:16;;;;;;;5.83;5.43;;;6.60;51.40;;;;;;5014885;28;20455;-66
2021/01/28 05:24:45;;;;;;;6.00;5.50;;;6.60;51.60;;;;;;5006333;28;20452;-66
2021/01/28 05:27:34;;;;;;;5.90;5.40;;;6.70;51.30;;;;;;5000884;28;20930;-65
2021/01/28 05:30:04;;;;;;;5.83;5.43;;;6.40;51.40;;;;;;5010564;28;20465;-66
2021/01/28 05:32:34;;;;;;;6.93;6.43;;;6.50;50.80;;;;;;5008400;28;20512;-65
2021/01/28 05:35:18;;;;;;;6.43;5.93;;;6.60;51.60;;;;;;5001625;28;21103;-66
2021/01/28 05:37:44;;;;;;;6.27;5.77;;;6.70;50.00;;;;;;5011820;28;20454;-65
2021/01/28 05:40:16;;;;;;;5.90;5.40;;;6.70;50.60;;;;;;5016723;28;20454;-66
2021/01/28 05:42:42;;;;;;;6.20;5.80;;;6.50;51.50;;;;;;5016097;28;21017;-66
2021/01/28 05:45:27;;;;;;;6.37;5.97;;;6.40;51.70;;;;;;5012964;28;20501;-68
2021/01/28 05:47:52;;;;;;;6.10;5.60;;;6.30;51.50;;;;;;5014032;28;21064;-67
2021/01/28 05:50:25;;;;;;;6.80;6.30;;;6.20;53.10;;;;;;5013301;28;20561;-68
2021/01/28 05:52:51;;;;;;;6.37;5.80;;;6.20;52.90;;;;;;5013816;28;20282;-68
2021/01/28 05:55:22;;;;;;;6.60;6.10;;;6.50;53.20;;;;;;5013781;28;20454;-69
2021/01/28 05:58:11;;;;;;;6.17;5.63;;;6.60;52.10;;;;;;5014806;28;20282;-68
2021/01/28 06:00:50;;;;;;;5.60;5.30;;;6.40;52.40;;;;;;5008873;28;20453;-68
2021/01/28 06:03:28;;;;;;;5.80;5.30;;;6.30;54.10;;;;;;5004526;28;20495;-68
2021/01/28 06:06:16;;;;;;;6.40;6.00;;;6.50;53.40;;;;;;5009801;28;20442;-68
2021/01/28 06:08:48;;;;;;;5.87;5.43;;;6.70;53.70;;;;;;5015801;28;20454;-68
2021/01/28 06:11:41;;;;;;;6.17;5.77;;;6.50;53.70;;;;;;5007216;28;20525;-68
2021/01/28 06:14:35;;;;;;;5.60;5.20;;;6.40;54.00;;;;;;4994841;28;20951;-67
2021/01/28 06:17:15;;;;;;;5.83;5.33;;;6.40;54.40;;;;;;4978554;28;20482;-67
2021/01/28 06:19:43;;;;;;;6.27;5.87;;;6.40;54.20;;;;;;4998709;28;20530;-68
2021/01/28 06:22:28;;;;;;;5.53;5.13;;;6.50;55.00;;;;;;5016194;28;20501;-68
2021/01/28 06:25:42;;;;;;;5.20;4.90;;;6.40;54.80;;;;;;5014451;28;20548;-68
2021/01/28 06:28:14;;;;;;;5.60;5.20;;;6.40;55.20;;;;;;5014699;28;20463;-67
2021/01/28 06:30:49;;;;;;;5.40;5.00;;;7.30;56.30;;;;;;5013224;28;20484;-65
2021/01/28 06:33:42;;;;;;;5.27;4.97;;;8.80;59.00;;;;;;5015853;28;20507;-66
2021/01/28 06:36:25;;;;;;;4.53;4.20;;;8.00;50.80;;;;;;5014664;28;20872;-66
2021/01/28 06:39:08;;;;;;;5.13;4.73;;;8.00;56.80;;;;;;5014871;28;20443;-64
2021/01/28 06:41:41;;;;;;;4.77;4.37;;;8.00;49.90;;;;;;5014482;28;20455;-65
2021/01/28 06:44:29;;;;;;;4.37;4.17;;;8.60;47.50;;;;;;5013541;28;20466;-67
2021/01/28 06:47:09;;;;;;;4.50;4.20;;;8.80;51.40;;;;;;5015639;28;20454;-65
2021/01/28 06:49:58;;;;;;;5.50;5.00;;;8.90;50.80;;;;;;5014639;28;20999;-64
2021/01/28 06:52:40;;;;;;;5.10;4.70;;;8.50;49.80;;;;;;5014869;28;20436;-65
2021/01/28 06:55:15;;;;;;;4.37;3.93;;;8.20;49.60;;;;;;5014131;28;20447;-65
2021/01/28 06:57:57;;;;;;;5.37;4.97;;;8.10;51.20;;;;;;5015146;28;20478;-66
2021/01/28 07:00:32;;;;;;;4.70;4.30;;;8.00;52.30;;;;;;5014655;28;20505;-64
2021/01/28 07:03:14;;;;;;;5.73;5.33;;;7.90;50.80;;;;;;5016657;28;20521;-65
2021/01/28 07:05:59;;;;;;;6.17;4.90;;;7.90;52.10;;;;;;5016664;28;20458;-65
2021/01/28 07:08:43;;;;;;;4.50;4.20;;;7.20;52.60;;;;;;5015047;28;20504;-67
2021/01/28 07:11:27;;;;;;;5.03;4.63;;;7.30;54.40;;;;;;5016555;28;20530;-67
2021/01/28 07:13:53;;;;;;;5.13;4.73;;;7.10;53.70;;;;;;5016505;28;20945;-67
2021/01/28 07:16:34;;;;;;;5.87;5.37;;;6.90;55.90;;;;;;5016374;28;20490;-65
2021/01/28 07:19:06;;;;;;;4.70;4.50;;;7.00;56.30;;;;;;5015060;28;20224;-65
2021/01/28 07:21:46;;;;;;;5.53;5.13;;;6.80;56.30;;;;;;5015845;28;20454;-66
2021/01/28 07:24:30;;;;;;;4.60;4.30;;;6.70;57.30;;;;;;5016034;28;20466;-65
2021/01/28 07:27:02;;;;;;;5.70;5.20;;;6.80;58.90;;;;;;5009857;28;20821;-65
2021/01/28 07:29:27;;;;;;;4.87;4.47;;;6.50;58.60;;;;;;5006261;28;20542;-65
2021/01/28 07:31:53;;;;;;;4.90;4.57;;;6.50;59.60;;;;;;4995457;28;20494;-66
2021/01/28 07:34:19;;;;;;;5.87;5.37;;;6.50;59.40;;;;;;5006960;28;20232;-66
2021/01/28 07:36:50;;;;;;;5.03;4.73;;;6.70;59.20;;;;;;5016774;28;20239;-66
2021/01/28 07:39:31;;;;;;;5.50;5.07;;;6.60;59.10;;;;;;5016144;28;20239;-68
2021/01/28 07:42:25;;;;;;;6.87;5.77;;;6.70;59.20;;;;;;4998022;28;20450;-65
2021/01/28 07:44:56;;;;;;;5.27;4.90;;;6.50;58.90;;;;;;4998341;28;20455;-64
2021/01/28 07:47:33;;;;;;;4.50;4.30;;;6.60;60.50;;;;;;4997771;28;20482;-66
2021/01/28 07:50:18;;;;;;;5.30;4.90;;;6.50;60.30;;;;;;4997215;28;20556;-66
2021/01/28 07:52:44;;;;;;;4.60;4.40;;;6.70;60.80;;;;;;4999013;28;20541;-66
2021/01/28 07:55:44;;;;;;;5.30;4.80;;;6.50;60.70;;;;;;4999858;28;20481;-66
2021/01/28 07:58:23;;;;;;;4.77;4.47;;;6.70;59.90;;;;;;5003846;28;20969;-65
2021/01/28 08:00:50;;;;;;;5.90;5.40;;;7.00;59.80;;;;;;5018186;28;20445;-64
2021/01/28 08:03:26;;;;;;;5.43;4.93;;;7.10;60.20;;;;;;5019407;28;20641;-67
2021/01/28 08:05:54;;;;;;;4.40;4.10;;;7.10;59.10;;;;;;5018309;28;20503;-68
2021/01/28 08:08:20;;;;;;;4.80;4.50;;;7.00;59.40;;;;;;5018161;28;20449;-68
2021/01/28 08:10:46;;;;;;;5.80;5.30;;;6.90;58.60;;;;;;5009360;28;20443;-66
2021/01/28 08:13:30;;;;;;;4.87;4.57;;;6.90;60.00;;;;;;5008769;28;20447;-68
2021/01/28 08:16:09;;;;;;;4.77;4.47;;;7.30;59.80;;;;;;5018202;28;20442;-68
2021/01/28 08:18:36;;;;;;;4.90;4.60;;;7.20;58.70;;;;;;5017771;28;20441;-68
2021/01/28 08:21:07;;;;;;;4.70;4.30;;;7.20;59.60;;;;;;5000726;28;20992;-66
2021/01/28 08:23:34;;;;;;;3.97;3.77;;;7.20;58.50;;;;;;4998287;28;20539;-66
2021/01/28 08:26:03;;;;;;;4.80;4.50;;;6.90;60.20;;;;;;4997258;28;20446;-67
2021/01/28 08:28:40;;;;;;;4.20;4.00;;;6.80;61.20;;;;;;4998145;28;20448;-67
2021/01/28 08:31:21;;;;;;;4.10;3.90;;;7.00;60.80;;;;;;5001909;28;20472;-68
2021/01/28 08:33:53;;;;;;;3.93;3.73;;;7.20;59.50;;;;;;5016369;28;20448;-66
2021/01/28 08:36:23;;;;;;;4.87;4.57;;;7.20;60.20;;;;;;5018158;28;20468;-67
2021/01/28 08:39:00;;;;;;;4.60;4.30;;;7.20;59.80;;;;;;5016651;28;20442;-67
2021/01/28 08:41:27;;;;;;;5.33;5.03;;;7.20;60.10;;;;;;5018609;28;20498;-68
2021/01/28 08:44:01;;;;;;;4.50;4.30;;;7.10;59.00;;;;;;5019542;28;20477;-67
2021/01/28 08:46:26;;;;;;;4.23;4.03;;;6.90;61.20;;;;;;5017733;28;20485;-67
2021/01/28 08:49:06;;;;;;;4.73;4.10;;;7.00;61.60;;;;;;5017538;28;21123;-66
2021/01/28 08:51:40;;;;;;;3.90;3.67;;;7.30;62.60;;;;;;5018825;28;20449;-67
2021/01/28 08:54:28;;;;;;;3.57;3.27;;;7.10;61.20;;;;;;5017897;28;20446;-66
2021/01/28 08:56:57;;;;;;;3.00;2.80;;;7.20;61.90;;;;;;4997646;28;20448;-68
2021/01/28 08:59:30;;;;;;;3.60;3.40;;;7.00;62.50;;;;;;4998874;28;20448;-67
2021/01/28 09:01:56;;;;;;;3.83;3.53;;;7.30;61.30;;;;;;5000390;28;20601;-67
2021/01/28 09:04:26;;;;;;;4.40;4.10;;;7.20;60.90;;;;;;4997268;28;20539;-66
2021/01/28 09:06:52;;;;;;;3.90;3.37;;;7.30;60.50;;;;;;5016516;28;20475;-65
2021/01/28 09:09:23;;;;;;;4.40;4.17;;;7.30;59.30;;;;;;5017910;28;20945;-65
2021/01/28 09:11:50;;;;;;;3.57;3.40;;;7.30;60.30;;;;;;4998793;28;20449;-67
2021/01/28 09:14:33;;;;;;;3.50;3.30;;;7.40;60.00;;;;;;5010845;28;20976;-68
2021/01/28 09:17:25;;;;;;;4.57;4.13;;;7.40;60.30;;;;;;5005424;28;20467;-67
2021/01/28 09:19:56;;;;;;;3.83;3.63;;;7.60;61.10;;;;;;4997048;28;20442;-67
2021/01/28 09:22:33;;;;;;;3.37;3.27;;;7.30;61.90;;;;;;4998264;28;20436;-66
2021/01/28 09:25:01;;;;;;;3.63;3.43;;;7.30;60.10;;;;;;4998300;28;20508;-67
2021/01/28 09:27:31;;;;;;;3.73;3.53;;;7.20;61.80;;;;;;4996583;28;20448;-66
2021/01/28 09:30:18;;;;;;;3.93;3.73;;;7.40;62.30;;;;;;4998442;28;20445;-64
2021/01/28 09:32:44;;;;;;;4.00;3.80;;;7.50;61.70;;;;;;4998854;28;20516;-65
2021/01/28 09:35:16;;;;;;;4.00;3.70;;;7.40;60.40;;;;;;4996586;28;20855;-66
2021/01/28 09:37:48;;;;;;;4.10;3.80;;;7.80;61.40;;;;;;5015436;28;20459;-67
2021/01/28 09:40:21;;;;;;;3.97;3.63;;;7.60;60.20;;;;;;5008746;28;21000;-66
2021/01/28 09:42:46;;;;;;;3.63;3.43;;;7.40;61.30;;;;;;4997789;28;20494;-66
2021/01/28 09:45:21;;;;;;;3.90;3.60;;;7.60;62.40;;;;;;4996731;28;20466;-65
2021/01/28 09:47:55;;;;;;;3.70;3.60;;;7.50;60.80;;;;;;4997362;28;20263;-64
2021/01/28 09:50:22;;;;;;;4.07;3.80;;;7.40;62.50;;;;;;4998534;28;20448;-66
2021/01/28 09:52:49;;;;;;;3.30;3.20;;;7.40;62.90;;;;;;5007495;28;20463;-66
2021/01/28 09:55:18;;;;;;;3.40;3.20;;;7.40;62.40;;;;;;5016859;28;20500;-65
2021/01/28 09:57:44;;;;;;;3.50;3.40;;;7.40;63.60;;;;;;5015966;28;20955;-66
2021/01/28 10:00:13;;;;;;;5.90;4.07;;;7.60;62.80;;;;;;5017303;28;20508;-65
2021/01/28 10:03:01;;;;;;;3.43;3.23;;;7.70;61.80;;;;;;5017882;28;20239;-65
2021/01/28 10:05:29;;;;;;;3.83;3.53;;;7.90;60.50;;;;;;5016353;28;20458;-65
2021/01/28 10:07:55;;;;;;;3.47;3.27;;;7.90;61.90;;;;;;5017065;28;20915;-66
2021/01/28 10:10:23;;;;;;;3.00;2.90;;;7.90;62.20;;;;;;5017324;28;20526;-66
2021/01/28 10:12:51;;;;;;;3.67;3.57;;;7.90;61.30;;;;;;5017524;28;20458;-66
2021/01/28 10:15:16;;;;;;;3.47;3.27;;;8.00;61.80;;;;;;5016341;28;20549;-65
2021/01/28 10:17:42;;;;;;;3.17;3.00;;;8.10;62.40;;;;;;5015266;28;21139;-65
2021/01/28 10:20:08;;;;;;;3.50;3.23;;;8.10;61.70;;;;;;5016278;28;20224;-64
2021/01/28 10:22:36;;;;;;;3.37;3.07;;;8.00;61.80;;;;;;5016389;28;20228;-65
2021/01/28 10:25:04;;;;;;;3.13;3.03;;;8.10;62.40;;;;;;5016694;28;20516;-63
2021/01/28 10:27:29;;;;;;;3.43;3.23;;;8.10;62.30;;;;;;5015116;28;20827;-64
2021/01/28 10:29:55;;;;;;;2.93;2.83;;;8.00;62.40;;;;;;5015534;28;20546;-66
2021/01/28 10:32:21;;;;;;;3.10;2.90;;;8.00;63.20;;;;;;5016191;28;20262;-63
2021/01/28 10:34:46;;;;;;;3.60;3.40;;;8.00;62.40;;;;;;5016233;28;20253;-64
2021/01/28 10:37:12;;;;;;;4.03;3.73;;;8.10;63.20;;;;;;5017256;28;20242;-66
2021/01/28 10:39:37;;;;;;;3.47;3.37;;;8.10;63.20;;;;;;5016538;28;20698;-65
2021/01/28 10:42:03;;;;;;;3.53;3.23;;;8.20;62.30;;;;;;5015859;28;20702;-66
2021/01/28 10:44:29;;;;;;;4.40;4.13;;;8.20;62.50;;;;;;5015332;28;20596;-67
2021/01/28 10:46:55;;;;;;;3.70;3.40;;;8.10;63.00;;;;;;5016378;28;20478;-68
2021/01/28 10:49:21;;;;;;;3.20;3.10;;;8.10;62.90;;;;;;5015985;28;20239;-67
2021/01/28 10:51:48;;;;;;;3.70;3.50;;;8.10;63.30;;;;;;5015893;28;20815;-66
2021/01/28 10:54:15;;;;;;;4.90;3.77;;;8.10;62.70;;;;;;5016918;28;20612;-68
2021/01/28 10:56:41;;;;;;;2.90;2.80;;;8.20;64.20;;;;;;5016353;28;20487;-67
2021/01/28 10:59:07;;;;;;;3.93;3.63;;;8.20;63.20;;;;;;5015423;28;20543;-66
2021/01/28 11:01:33;;;;;;;3.23;3.10;;;8.20;63.90;;;;;;5015052;28;20235;-67
2021/01/28 11:03:58;;;;;;;3.73;3.53;;;8.20;63.60;;;;;;5015581;28;20585;-65
2021/01/28 11:06:24;;;;;;;3.50;3.20;;;8.30;64.30;;;;;;5015697;28;20532;-64
2021/01/28 11:08:49;;;;;;;3.73;3.53;;;8.40;63.70;;;;;;5016233;28;20306;-65
2021/01/28 11:11:16;;;;;;;5.67;3.77;;;8.40;62.60;;;;;;5015971;28;20725;-64
2021/01/28 11:13:43;;;;;;;4.40;4.10;;;8.50;62.40;;;;;;5015255;28;20220;-66
2021/01/28 11:16:09;;;;;;;3.30;3.10;;;8.50;63.00;;;;;;5014725;28;20450;-63
2021/01/28 11:18:34;;;;;;;4.10;3.90;;;8.40;62.70;;;;;;5015124;28;20443;-64
2021/01/28 11:21:00;;;;;;;4.10;3.80;;;8.40;62.80;;;;;;5015605;28;20526;-66
2021/01/28 11:23:25;;;;;;;4.07;3.87;;;8.30;64.40;;;;;;5015964;28;20251;-65
2021/01/28 11:25:51;;;;;;;3.53;3.40;;;8.40;63.70;;;;;;5015888;28;20597;-65
2021/01/28 11:28:16;;;;;;;3.10;2.90;;;8.60;63.60;;;;;;5014834;28;20233;-66
2021/01/28 11:30:42;;;;;;;3.23;3.10;;;8.60;61.70;;;;;;5014475;28;20233;-64
2021/01/28 11:33:08;;;;;;;3.20;3.10;;;8.50;62.80;;;;;;5015314;28;20255;-64
2021/01/28 11:35:36;;;;;;;4.17;3.97;;;8.60;64.10;;;;;;5015731;28;20231;-65
2021/01/28 11:38:04;;;;;;;3.80;3.60;;;8.50;64.70;;;;;;5015577;28;20464;-64
2021/01/28 11:40:31;;;;;;;3.30;3.20;;;8.60;64.80;;;;;;5015890;28;20517;-64
2021/01/28 11:42:57;;;;;;;3.70;3.50;;;8.80;64.00;;;;;;5015322;28;20454;-66
2021/01/28 11:45:29;;;;;;;4.03;3.83;;;8.80;63.20;;;;;;5014167;28;20510;-66
2021/01/28 11:47:55;;;;;;;3.70;3.47;;;9.00;64.20;;;;;;5015192;28;21016;-66
2021/01/28 11:50:22;;;;;;;3.67;3.50;;;9.00;62.80;;;;;;5015538;28;20451;-66
2021/01/28 11:52:48;;;;;;;3.70;3.50;;;9.00;62.30;;;;;;5015675;28;20450;-65
2021/01/28 11:55:17;;;;;;;3.67;3.30;;;9.10;63.00;;;;;;5015815;28;20461;-66
2021/01/28 11:57:43;;;;;;;3.67;3.57;;;9.10;62.90;;;;;;5015101;28;20455;-66
2021/01/28 12:00:11;;;;;;;3.63;3.53;;;9.20;61.70;;;;;;5014308;28;20473;-66
2021/01/28 12:02:36;;;;;;;3.97;3.77;;;9.00;62.80;;;;;;5014981;28;20815;-65
2021/01/28 12:05:02;;;;;;;3.50;3.40;;;9.30;62.20;;;;;;5015210;28;20561;-65
2021/01/28 12:07:28;;;;;;;3.50;3.30;;;9.40;62.40;;;;;;5014954;28;20373;-66
2021/01/28 12:09:53;;;;;;;3.20;3.10;;;9.40;61.50;;;;;;5016070;28;20768;-65
2021/01/28 12:12:19;;;;;;;3.83;3.63;;;9.40;61.50;;;;;;5014870;28;20250;-67
2021/01/28 12:14:44;;;;;;;3.50;3.33;;;9.40;61.90;;;;;;5026136;28;20632;-66
2021/01/28 12:17:10;;;;;;;3.50;3.40;;;9.50;61.60;;;;;;5035184;28;20223;-65
2021/01/28 12:19:35;;;;;;;4.07;3.80;;;9.30;62.10;;;;;;5006415;28;20744;-66
2021/01/28 12:22:01;;;;;;;3.63;3.33;;;9.30;63.50;;;;;;4997891;28;20232;-64
2021/01/28 12:24:28;;;;;;;4.00;3.80;;;9.50;62.30;;;;;;4999853;28;20229;-64
2021/01/28 12:26:55;;;;;;;4.00;3.80;;;9.50;61.60;;;;;;4999278;28;20283;-65
2021/01/28 12:29:21;;;;;;;5.77;5.43;;;9.60;62.50;;;;;;4998518;28;20587;-65
2021/01/28 12:31:46;;;;;;;7.80;5.47;;;9.70;62.50;;;;;;4997961;28;20448;-65
2021/01/28 12:34:12;;;;;;;5.57;3.90;;;9.70;62.80;;;;;;4998801;28;20228;-66
2021/01/28 12:36:37;;;;;;;3.90;3.70;;;9.60;64.20;;;;;;4998880;28;20228;-65
2021/01/28 12:39:04;;;;;;;3.03;2.93;;;9.70;65.20;;;;;;4999155;28;20256;-66
2021/01/28 12:41:29;;;;;;;7.20;6.53;;;9.70;65.30;;;;;;4999651;28;20609;-65
2021/01/28 12:43:55;;;;;;;5.03;4.70;;;9.70;64.50;;;;;;4999138;28;20459;-65
2021/01/28 12:46:20;;;;;;;9.80;8.90;;;9.80;66.10;;;;;;4998335;28;20308;-65
2021/01/28 12:48:46;;;;;;;3.43;3.30;;;9.80;66.10;;;;;;4997564;28;20307;-66
2021/01/28 12:51:11;;;;;;;4.10;3.90;;;9.90;65.30;;;;;;4998767;28;20256;-64
2021/01/28 12:53:37;;;;;;;3.07;2.97;;;10.00;64.40;;;;;;4998326;28;20276;-65
2021/01/28 12:56:03;;;;;;;3.30;3.20;;;10.10;63.00;;;;;;4999083;28;20229;-67
2021/01/28 12:58:28;;;;;;;3.27;3.17;;;10.10;63.40;;;;;;4999847;28;20826;-66
2021/01/28 13:00:54;;;;;;;3.60;3.30;;;10.10;62.70;;;;;;5017534;28;20603;-66
2021/01/28 13:03:19;;;;;;;3.90;3.70;;;10.20;62.30;;;;;;5016638;28;21115;-67
2021/01/28 13:05:45;;;;;;;3.13;3.03;;;10.20;63.40;;;;;;5017833;28;20320;-65
2021/01/28 13:08:11;;;;;;;3.57;3.47;;;10.20;62.70;;;;;;5018016;28;20317;-66
2021/01/28 13:10:37;;;;;;;3.40;3.20;;;10.30;62.60;;;;;;5017515;28;20711;-67
2021/01/28 13:13:02;;;;;;;3.60;3.27;;;10.10;64.80;;;;;;5018356;28;20540;-65